ESNN

Sundsvall-Härnösand Airport

Sundsvall/ Härnösand, Sweden
METAR ESNN 151850Z 33006KT 9999 -SN OVC010 M00/M01 Q0993 R16/79//66
Observed Flight Rules
Dec-15 @ 18:50 UTC (46 minutes ago) Marginal Visual Flight Rules
Wind Visibility Clouds Conditions
330° at 6 knots 10,000+ meters
  • Overcast at 1,000' AGL
  • Light Snow
Temperatures Readings
Current 0°C / 32°F
Dewpoint -1°C / 30°F
Humidity 93%
Altimeter 29.32" Hg
Pressure 993 hPa
Elevation 10
METAR ESNN 151850Z 33006KT 9999 -SN OVC010 M00/M01 Q0993 R16/79//66
Observed Flight Rules
Dec-15 @ 18:50 UTC
(46 minutes ago)
MVFR
Wind Visibility
330° at 6 knots 10,000+ meters
Clouds
  • Overcast at 1,000' AGL
Conditions
  • Light Snow
Temperature Dewpoint
0°C / 32°F -1°C / 30°F
Humidity Altimeter Pressure
93% 29.32" Hg 993 hPa